Afonso Pena Airport

SBCT · Paraná, Brésil

METAR anciennes SBCT · Afonso Pena Airport

Tu vois ci-dessous les METAR des derniers jours. Sélectionne une année pour parcourir les METAR plus anciens, à partir de l'année 2007.

13 avril 2024

Temps Code Temps Temp. Vue Base cloud Vent METAR/SPECI
02:00
M
19 °C 10 km+ 1.000 ft 070° 070° 8 kt METAR SBCT 130500Z 07008KT 9999 BKN010 19/17 Q1022
01:10
I
18 °C 6 km 900 ft 070° 070° 8 kt METAR SBCT 130410Z 07008KT 6000 BKN009 18/18 Q1022
01:00
M
19 °C 6 km 2.000 ft 080° 080° 7 kt METAR SBCT 130400Z 08007KT 6000 SCT009 OVC020 19/18 Q1022
00:00
M
18 °C 10 km+ 2.000 ft 090° 090° 5 kt METAR SBCT 130300Z 09005KT 9999 SCT013 BKN020 18/17 Q1022

12 avril 2024

Temps Code Temps Temp. Vue Base cloud Vent METAR/SPECI
23:00
M
18 °C 10 km+ 2.500 ft 090° 090° 5 kt METAR SBCT 130200Z 09005KT 9999 BKN025 18/17 Q1022
22:00
M
18 °C 10 km+ 2.500 ft 090° 090° 6 kt METAR SBCT 130100Z 09006KT 9999 BKN025 18/17 Q1022
21:00
V
18 °C 10 km+ - 080° 080° 6 kt METAR SBCT 130000Z 08006KT CAVOK 18/17 Q1022
20:00
V
19 °C 10 km+ - 090° 090° 7 kt METAR SBCT 122300Z 09007KT 9999 FEW012 SCT025 19/17 Q1021
19:00
V
19 °C 10 km+ - 100° 100° 8 kt METAR SBCT 122200Z 10008KT 9999 SCT010 19/18 Q1021
18:00
V
20 °C 10 km+ - 110° 110° 10 kt METAR SBCT 122100Z 11010KT 9999 SCT010 20/18 Q1020
17:00
V
22 °C 10 km+ 4.000 ft 100° 100° 8 kt METAR SBCT 122000Z 10008KT 9999 FEW015 BKN040 22/18 Q1020
16:00
V
22 °C 10 km+ 4.000 ft 110° 110° 10 kt METAR SBCT 121900Z 11010KT 9999 FEW015 BKN040 22/18 Q1021
15:00
V
24 °C 10 km+ 4.000 ft 110° 110° 9 kt METAR SBCT 121800Z 11009KT 9999 FEW015 BKN040 24/19 Q1021
14:00
M
24 °C 10 km+ 3.000 ft 080° 080° 8 kt METAR SBCT 121700Z 08008KT 050V110 9999 SCT015 BKN030 24/19 Q1021
13:25
M
23 °C 10 km+ 3.000 ft 110° 110° 7 kt METAR SBCT 121625Z 11007KT 9999 SCT015 BKN030 23/19 Q1022
13:00
M
22 °C 10 km+ 1.400 ft 090° 090° 8 kt METAR SBCT 121600Z 09008KT 9999 BKN014 BKN030 22/18 Q1022
12:00
M
22 °C 10 km+ 1.300 ft 080° 080° 9 kt METAR SBCT 121500Z 08009KT 030V100 9999 BKN013 BKN027 22/17 Q1023
11:00
M
21 °C 10 km+ 1.300 ft 060° 060° 8 kt METAR SBCT 121400Z 06008KT 020V090 9999 BKN013 BKN025 21/18 Q1023
10:00
M
20 °C 9 km 1.200 ft 080° 080° 7 kt METAR SBCT 121300Z 08007KT 050V110 9000 BKN012 BKN025 20/18 Q1023
09:00
M
20 °C 8 km 1.000 ft 100° 100° 3 kt METAR SBCT 121200Z 10003KT 060V150 8000 BKN010 OVC020 20/19 Q1023
08:00
M
19 °C 9 km 1.000 ft 130° 130° 3 kt METAR SBCT 121100Z 13003KT 090V150 9000 BKN010 OVC020 19/18 Q1022
07:00
I
18 °C 10 km+ 900 ft 140° 140° 4 kt METAR SBCT 121000Z 14004KT 9999 BKN009 18/18 Q1022
06:00
I
18 °C 10 km+ 900 ft 090° 090° 4 kt METAR SBCT 120900Z 09004KT 9999 BKN009 18/18 Q1021
05:00
I
18 °C 10 km+ 500 ft 140° 140° 5 kt METAR SBCT 120800Z 14005KT 9999 OVC005 18/18 Q1021
04:00
M
18 °C 10 km+ 1.000 ft 140° 140° 6 kt METAR SBCT 120700Z 14006KT 9999 OVC010 18/18 Q1021
03:00
I
18 °C 10 km+ 900 ft 140° 140° 5 kt METAR SBCT 120600Z 14005KT 9999 BKN009 OVC020 18/17 Q1021
02:00
I
18 °C 10 km+ 800 ft 130° 130° 5 kt METAR SBCT 120500Z 13005KT 9999 BKN008 BKN020 18/18 Q1022
01:00
I
18 °C 6 km 800 ft 120° 120° 4 kt METAR SBCT 120400Z 12004KT 6000 -DZ OVC008 18/18 Q1022
00:00
I
18 °C 10 km+ 800 ft 120° 120° 3 kt METAR SBCT 120300Z 12003KT 9999 OVC008 18/18 Q1022

11 avril 2024

Temps Code Temps Temp. Vue Base cloud Vent METAR/SPECI
23:00
I
18 °C 10 km+ 800 ft 120° 120° 5 kt METAR SBCT 120200Z 12005KT 9999 BKN008 18/17 Q1022
22:00
I
18 °C 10 km+ 800 ft 120° 120° 6 kt METAR SBCT 120100Z 12006KT 9999 BKN008 18/17 Q1022
21:00
I
18 °C 10 km+ 800 ft 120° 120° 7 kt METAR SBCT 120000Z 12007KT 9999 BKN008 BKN030 18/17 Q1021
20:00
I
19 °C 10 km+ 800 ft 110° 110° 6 kt METAR SBCT 112300Z 11006KT 9999 BKN008 BKN014 19/18 Q1021
19:00
I
19 °C 10 km+ 800 ft 120° 120° 8 kt METAR SBCT 112200Z 12008KT 9999 BKN008 19/17 Q1020
18:00
M
20 °C 10 km+ 1.100 ft 110° 110° 9 kt METAR SBCT 112100Z 11009KT 9999 BKN011 20/18 Q1020
17:00
V
21 °C 10 km+ - 110° 110° 9 kt METAR SBCT 112000Z 11009KT 080V140 9999 SCT012 21/18 Q1020
16:00
V
22 °C 10 km+ - 120° 120° 11 kt METAR SBCT 111900Z 12011KT 9999 SCT020 22/18 Q1019
15:00
V
24 °C 10 km+ 4.500 ft 100° 100° 7 kt METAR SBCT 111800Z 10007KT 9999 SCT023 BKN045 24/18 Q1019
14:00
M
24 °C 10 km+ 3.000 ft 090° 090° 6 kt METAR SBCT 111700Z 09006KT 9999 BKN030 24/17 Q1020
13:00
M
24 °C 10 km+ 3.000 ft 080° 080° 9 kt METAR SBCT 111600Z 08009KT 9999 BKN030 24/17 Q1020
12:00
M
23 °C 10 km+ 2.500 ft 100° 100° 8 kt METAR SBCT 111500Z 10008KT 9999 BKN025 23/17 Q1020
11:00
M
22 °C 10 km+ 2.000 ft 120° 120° 9 kt METAR SBCT 111400Z 12009KT 9999 BKN020 22/17 Q1021
10:00
M
21 °C 10 km+ 1.500 ft 090° 090° 5 kt METAR SBCT 111300Z 09005KT 9999 SCT012 BKN015 21/18 Q1021
09:00
V
19 °C 10 km+ - 120° 120° 4 kt METAR SBCT 111200Z 12004KT 9999 FEW014 SCT020 19/18 Q1021
08:00
M
18 °C 10 km+ 2.000 ft 170° 170° 3 kt METAR SBCT 111100Z 17003KT 9999 FEW014 BKN020 18/18 Q1020
07:00
I
16 °C 4,5 km 1.400 ft 120° 120° 3 kt METAR SBCT 111000Z 12003KT 4500 BR FEW002 BKN014 16/16 Q1019
06:10
L
15 °C 900 m 100 ft 130° 130° 4 kt METAR SBCT 110910Z 13004KT 0900 R33/0450 R15/1600 FG VV001 15/15 Q1019
06:00
I
16 °C 2 km 700 ft 080° 080° 3 kt METAR SBCT 110900Z 08003KT 2000 R33/1300 R15/2000 BCFG SCT002 BKN007 16/16 Q1019
05:15
L
16 °C 600 m - 090° 090° 1 kt METAR SBCT 110815Z 09001KT 0600 R33/0550 R15/0600 BCFG FEW001 16/16 Q1019
05:00
V
16 °C 9 km - 120° 120° 1 kt METAR SBCT 110800Z 12001KT 9000 FEW015 16/16 Q1019
04:00
V
17 °C 10 km+ - 150° 150° 4 kt METAR SBCT 110700Z 15004KT 9999 FEW009 17/16 Q1018
03:00
V
17 °C 10 km+ - 080° 080° 4 kt METAR SBCT 110600Z 08004KT 9999 FEW009 17/16 Q1018
02:00
V
17 °C 10 km+ - 130° 130° 5 kt METAR SBCT 110500Z 13005KT 9999 FEW009 17/17 Q1018
01:00
I
17 °C 7 km 900 ft 130° 130° 6 kt METAR SBCT 110400Z 13006KT 7000 BKN009 17/17 Q1019
00:00
L
18 °C 2,5 km 200 ft 120° 120° 4 kt METAR SBCT 110300Z 12004KT 2500 BR BKN002 18/17 Q1019

10 avril 2024

Temps Code Temps Temp. Vue Base cloud Vent METAR/SPECI
23:40
I
18 °C 3 km - 100° 100° 3 kt METAR SBCT 110240Z 10003KT 3000 BR SCT002 18/17 Q1018
23:00
M
18 °C 6 km - 120° 120° 6 kt METAR SBCT 110200Z 12006KT 6000 FEW020 18/18 Q1018
22:00
V
18 °C 10 km+ - 080° 080° 5 kt METAR SBCT 110100Z 08005KT CAVOK 18/17 Q1018
21:00
V
19 °C 10 km+ - 090° 090° 4 kt METAR SBCT 110000Z 09004KT 9999 FEW005 19/18 Q1018
20:00
V
19 °C 10 km+ - 080° 080° 6 kt METAR SBCT 102300Z 08006KT 9999 FEW005 19/19 Q1017
Signaler les modifications